createdAt,value
2023-02-16T00:02:17.605Z,16.60
2023-02-16T00:04:45.798Z,16.50
2023-02-16T00:07:14.063Z,16.30
2023-02-16T00:09:42.227Z,15.70
2023-02-16T00:12:39.112Z,15.70
2023-02-16T00:15:17.212Z,15.90
2023-02-16T00:17:45.348Z,15.50
2023-02-16T00:20:19.131Z,15.80
2023-02-16T00:22:47.289Z,15.90
2023-02-16T00:25:15.793Z,16.20
2023-02-16T00:27:45.540Z,16.30
2023-02-16T00:30:16.676Z,16.20
2023-02-16T00:32:44.971Z,16.20
2023-02-16T00:35:18.944Z,16.40
2023-02-16T00:37:47.820Z,16.40
2023-02-16T00:40:18.907Z,16.30
2023-02-16T00:42:49.052Z,16.40
2023-02-16T00:45:19.985Z,16.60
2023-02-16T00:47:51.229Z,16.80
2023-02-16T00:50:28.506Z,16.90
2023-02-16T00:52:58.371Z,16.70
2023-02-16T00:55:29.423Z,16.20
2023-02-16T00:58:06.167Z,15.90
2023-02-16T01:00:37.172Z,15.50
2023-02-16T01:03:08.806Z,15.70
2023-02-16T01:05:37.622Z,15.50
2023-02-16T01:08:28.341Z,15.60
2023-02-16T01:11:10.147Z,15.60
2023-02-16T01:13:45.134Z,15.80
2023-02-16T01:16:16.208Z,16.00
2023-02-16T01:18:44.975Z,16.20
2023-02-16T01:21:15.324Z,16.10
2023-02-16T01:23:43.553Z,16.40
2023-02-16T01:26:15.774Z,16.30
2023-02-16T01:28:45.946Z,16.20
2023-02-16T01:31:18.048Z,16.30
2023-02-16T01:33:46.369Z,16.50
2023-02-16T01:36:23.955Z,16.50
2023-02-16T01:38:52.379Z,16.40
2023-02-16T01:41:33.583Z,16.50
2023-02-16T01:44:05.260Z,16.40
2023-02-16T01:46:40.598Z,16.20
2023-02-16T01:49:16.267Z,16.10
2023-02-16T01:51:52.555Z,15.90
2023-02-16T01:54:33.649Z,16.10
2023-02-16T01:57:06.841Z,16.00
2023-02-16T02:00:00.888Z,16.10
2023-02-16T02:02:33.828Z,16.00
2023-02-16T02:05:25.158Z,15.80
2023-02-16T02:07:57.699Z,15.60
2023-02-16T02:10:31.912Z,15.70
2023-02-16T02:13:05.969Z,15.80
2023-02-16T02:15:37.681Z,16.00
2023-02-16T02:18:07.142Z,16.10
2023-02-16T02:21:04.614Z,16.00
2023-02-16T02:23:56.259Z,16.00
2023-02-16T02:26:59.948Z,15.80
2023-02-16T02:29:56.435Z,15.40
2023-02-16T02:32:34.452Z,15.00
2023-02-16T02:35:15.027Z,15.10
2023-02-16T02:37:50.763Z,14.60
2023-02-16T02:40:29.607Z,14.60
2023-02-16T02:43:08.052Z,14.50
2023-02-16T02:45:44.563Z,14.90
2023-02-16T02:48:12.741Z,14.80
2023-02-16T02:51:07.764Z,14.90
2023-02-16T02:53:41.032Z,14.80
2023-02-16T02:56:29.321Z,14.60
2023-02-16T02:59:21.143Z,14.60
2023-02-16T03:01:54.561Z,14.10
2023-02-16T03:04:27.265Z,13.70
2023-02-16T03:07:01.635Z,13.70
2023-02-16T03:09:30.120Z,13.00
2023-02-16T03:12:21.197Z,12.40
2023-02-16T03:14:53.928Z,12.10
2023-02-16T03:17:42.310Z,11.70
2023-02-16T03:20:32.951Z,11.40
2023-02-16T03:23:22.871Z,11.30
2023-02-16T03:26:10.889Z,10.90
2023-02-16T03:29:00.405Z,10.90
2023-02-16T03:31:33.561Z,10.80
2023-02-16T03:34:02.483Z,10.50
2023-02-16T03:36:34.018Z,10.60
2023-02-16T03:39:03.176Z,10.60
2023-02-16T03:41:34.255Z,10.40
2023-02-16T03:44:02.443Z,10.30
2023-02-16T03:46:32.332Z,10.40
2023-02-16T03:49:00.557Z,10.50
2023-02-16T03:51:28.772Z,10.30
2023-02-16T03:53:56.917Z,10.20
2023-02-16T03:56:25.103Z,10.10
2023-02-16T03:58:53.280Z,10.30
2023-02-16T04:01:21.462Z,10.50
2023-02-16T04:03:51.018Z,10.30
2023-02-16T04:06:19.238Z,10.30
2023-02-16T04:08:47.652Z,10.40
2023-02-16T04:11:47.892Z,10.40
2023-02-16T04:14:16.257Z,10.40
2023-02-16T04:16:44.541Z,10.80
2023-02-16T04:19:14.134Z,11.00
2023-02-16T04:21:42.921Z,11.10
2023-02-16T04:24:11.120Z,11.10
2023-02-16T04:26:41.394Z,11.30
2023-02-16T04:29:09.576Z,11.90
2023-02-16T04:31:37.852Z,11.90
2023-02-16T04:34:06.134Z,12.30
2023-02-16T04:36:35.701Z,12.20
2023-02-16T04:39:03.943Z,12.00
2023-02-16T04:41:32.152Z,11.90
2023-02-16T04:44:00.297Z,11.90
2023-02-16T04:46:28.524Z,11.90
2023-02-16T04:48:57.026Z,11.80
2023-02-16T04:51:25.178Z,11.90
2023-02-16T04:53:54.743Z,12.20
2023-02-16T04:56:22.935Z,11.80
2023-02-16T04:58:51.144Z,11.70
2023-02-16T05:01:21.283Z,11.30
2023-02-16T05:03:50.083Z,11.40
2023-02-16T05:06:19.020Z,11.80
2023-02-16T05:08:47.501Z,11.90
2023-02-16T05:11:33.796Z,12.30
2023-02-16T05:14:22.455Z,13.10
2023-02-16T05:16:50.788Z,12.90
2023-02-16T05:19:21.717Z,13.10
2023-02-16T05:21:49.902Z,13.70
2023-02-16T05:24:20.987Z,13.50
2023-02-16T05:26:50.495Z,13.70
2023-02-16T05:29:20.085Z,13.10
2023-02-16T05:31:48.399Z,12.70
2023-02-16T05:34:16.595Z,11.70
2023-02-16T05:36:44.818Z,11.10
2023-02-16T05:39:14.975Z,11.00
2023-02-16T05:41:43.113Z,11.40
2023-02-16T05:44:15.198Z,11.50
2023-02-16T05:46:44.186Z,11.60
2023-02-16T05:49:12.490Z,11.30
2023-02-16T05:51:40.804Z,11.00
2023-02-16T05:54:10.665Z,10.90
2023-02-16T05:56:40.483Z,10.50
2023-02-16T05:59:10.481Z,10.70
2023-02-16T06:01:40.918Z,10.50
2023-02-16T06:04:09.650Z,10.40
2023-02-16T06:06:39.532Z,10.30
2023-02-16T06:09:09.873Z,10.70
2023-02-16T06:11:38.403Z,11.10
2023-02-16T06:14:09.256Z,11.20
2023-02-16T06:16:40.423Z,10.90
2023-02-16T06:19:09.572Z,11.00
2023-02-16T06:21:38.413Z,11.40
2023-02-16T06:24:07.964Z,11.50
2023-02-16T06:26:36.624Z,11.80
2023-02-16T06:29:05.505Z,11.70
2023-02-16T06:31:36.353Z,12.10
2023-02-16T06:34:06.571Z,12.10
2023-02-16T06:36:35.490Z,12.50
2023-02-16T06:39:03.733Z,12.40
2023-02-16T06:41:37.821Z,12.50
2023-02-16T06:44:07.800Z,12.80
2023-02-16T06:46:36.081Z,12.90
2023-02-16T06:49:05.697Z,13.40
2023-02-16T06:51:34.616Z,13.30
2023-02-16T06:54:02.836Z,13.40
2023-02-16T06:56:31.016Z,13.70
2023-02-16T06:58:59.162Z,13.90
2023-02-16T07:01:27.728Z,13.70
2023-02-16T07:03:57.794Z,13.00
2023-02-16T07:06:29.086Z,12.30
2023-02-16T07:08:57.347Z,12.70
2023-02-16T07:11:25.497Z,12.60
2023-02-16T07:13:53.831Z,11.90
2023-02-16T07:16:22.194Z,12.10
2023-02-16T07:18:51.341Z,12.00
2023-02-16T07:21:19.515Z,12.40
2023-02-16T07:23:49.081Z,12.40
2023-02-16T07:26:17.300Z,12.40
2023-02-16T07:28:45.487Z,12.40
2023-02-16T07:31:15.935Z,12.70
2023-02-16T07:33:44.950Z,12.10
2023-02-16T07:36:15.753Z,12.20
2023-02-16T07:38:44.020Z,12.00
2023-02-16T07:41:16.675Z,12.20
2023-02-16T07:43:44.860Z,12.00
2023-02-16T07:46:14.377Z,12.30
2023-02-16T07:48:51.246Z,12.70
2023-02-16T07:51:23.576Z,12.60
2023-02-16T07:53:51.945Z,12.40
2023-02-16T07:56:23.034Z,12.10
2023-02-16T07:58:53.082Z,12.20
2023-02-16T08:01:21.942Z,12.50
2023-02-16T08:03:50.698Z,12.90
2023-02-16T08:06:20.124Z,13.60
2023-02-16T08:08:48.668Z,13.20
2023-02-16T08:11:18.836Z,13.10
2023-02-16T08:13:49.344Z,13.00
2023-02-16T08:16:22.955Z,13.30
2023-02-16T08:18:52.127Z,12.90
2023-02-16T08:21:23.577Z,12.90
2023-02-16T08:23:55.729Z,12.90
2023-02-16T08:26:25.108Z,12.80
2023-02-16T08:28:58.637Z,13.00
2023-02-16T08:31:29.893Z,12.50
2023-02-16T08:34:04.040Z,12.50
2023-02-16T08:36:37.045Z,12.70
2023-02-16T08:39:09.834Z,12.70
2023-02-16T08:41:41.445Z,12.90
2023-02-16T08:44:12.074Z,12.80
2023-02-16T08:46:44.685Z,12.90
2023-02-16T08:49:14.149Z,12.70
2023-02-16T08:51:45.098Z,12.70
2023-02-16T08:54:17.316Z,12.50
2023-02-16T08:56:49.207Z,12.70
2023-02-16T08:59:20.639Z,13.20
2023-02-16T09:01:49.507Z,13.70
2023-02-16T09:04:21.901Z,14.00
2023-02-16T09:06:53.342Z,13.50
2023-02-16T09:09:24.713Z,13.50
2023-02-16T09:11:52.869Z,13.40
2023-02-16T09:14:23.080Z,13.30
2023-02-16T09:16:51.488Z,13.50
2023-02-16T09:19:21.697Z,13.80
2023-02-16T09:21:51.997Z,13.80
2023-02-16T09:24:20.226Z,14.10
2023-02-16T09:26:49.677Z,14.50
2023-02-16T09:29:18.106Z,14.50
2023-02-16T09:31:47.677Z,14.70
2023-02-16T09:34:18.864Z,14.90
2023-02-16T09:36:48.252Z,15.10
2023-02-16T09:39:17.558Z,15.30
2023-02-16T09:42:01.116Z,14.90
2023-02-16T09:44:39.274Z,15.00
2023-02-16T09:47:22.030Z,15.40
2023-02-16T09:49:51.222Z,15.20
2023-02-16T09:52:24.297Z,15.30
2023-02-16T09:54:55.182Z,15.80
2023-02-16T09:57:39.581Z,15.10
2023-02-16T10:00:23.391Z,14.50
2023-02-16T10:03:01.966Z,14.40
2023-02-16T10:05:37.423Z,14.60
2023-02-16T10:08:09.426Z,14.40
2023-02-16T10:10:49.311Z,14.60
2023-02-16T10:13:24.982Z,14.60
2023-02-16T10:15:55.109Z,14.20
2023-02-16T10:18:35.516Z,13.90
2023-02-16T10:21:09.032Z,14.40
2023-02-16T10:23:46.378Z,14.60
2023-02-16T10:26:19.551Z,14.70
2023-02-16T10:28:50.204Z,15.10
2023-02-16T10:31:30.062Z,15.00
2023-02-16T10:34:22.832Z,14.70
2023-02-16T10:37:16.861Z,14.20
2023-02-16T10:39:49.082Z,14.40
2023-02-16T10:42:26.089Z,14.50
2023-02-16T10:45:01.221Z,14.80
2023-02-16T10:47:36.740Z,14.60
2023-02-16T10:50:08.947Z,14.70
2023-02-16T10:52:41.679Z,15.10
2023-02-16T10:55:10.041Z,14.90
2023-02-16T10:57:38.255Z,15.10
2023-02-16T11:00:10.349Z,15.20
2023-02-16T11:02:41.866Z,15.60
2023-02-16T11:05:38.131Z,15.20
2023-02-16T11:08:11.248Z,14.90
2023-02-16T11:10:48.789Z,14.80
2023-02-16T11:13:32.402Z,15.00
2023-02-16T11:16:05.005Z,14.90
2023-02-16T11:18:37.828Z,15.10
2023-02-16T11:21:09.575Z,15.30
2023-02-16T11:23:39.650Z,15.10
2023-02-16T11:26:24.047Z,15.50
2023-02-16T11:28:53.151Z,15.40
2023-02-16T11:31:33.584Z,15.20
2023-02-16T11:34:06.120Z,15.40
2023-02-16T11:36:40.349Z,15.40
2023-02-16T11:39:18.137Z,15.70
2023-02-16T11:41:49.336Z,15.40
2023-02-16T11:44:28.479Z,15.80
2023-02-16T11:46:57.909Z,15.70
2023-02-16T11:49:33.203Z,15.40
2023-02-16T11:52:20.905Z,15.50
2023-02-16T11:54:53.385Z,15.50
2023-02-16T11:57:26.956Z,15.60
2023-02-16T11:59:56.561Z,15.60
2023-02-16T12:02:48.599Z,15.70
2023-02-16T12:05:39.195Z,15.70
2023-02-16T12:08:35.968Z,15.60
2023-02-16T12:11:18.882Z,15.90
2023-02-16T12:13:53.761Z,16.40
2023-02-16T12:16:31.195Z,16.50
2023-02-16T12:19:19.508Z,16.90
2023-02-16T12:21:51.735Z,17.00
2023-02-16T12:24:35.276Z,17.80
2023-02-16T12:27:05.495Z,17.50
2023-02-16T12:29:47.720Z,17.60
2023-02-16T12:32:30.175Z,17.70
2023-02-16T12:35:13.432Z,18.20
2023-02-16T12:37:49.296Z,18.30
2023-02-16T12:40:30.109Z,18.20
2023-02-16T12:43:08.459Z,17.70
2023-02-16T12:45:39.847Z,17.80
2023-02-16T12:48:20.953Z,17.60
2023-02-16T12:50:52.665Z,17.10
2023-02-16T12:53:28.049Z,17.10
2023-02-16T12:56:01.673Z,17.40
2023-02-16T12:58:32.043Z,17.30
2023-02-16T13:01:04.317Z,17.10
2023-02-16T13:03:42.604Z,16.70
2023-02-16T13:06:19.514Z,16.50
2023-02-16T13:08:56.885Z,16.60
2023-02-16T13:11:33.830Z,16.70
2023-02-16T13:14:05.621Z,17.10
2023-02-16T13:16:42.176Z,17.00
2023-02-16T13:19:13.105Z,17.00
2023-02-16T13:22:14.613Z,16.90
2023-02-16T13:24:54.924Z,17.20
2023-02-16T13:27:37.006Z,17.10
2023-02-16T13:30:45.853Z,16.90
2023-02-16T13:33:45.007Z,16.90
2023-02-16T13:36:39.001Z,16.90
2023-02-16T13:39:40.638Z,17.20
2023-02-16T13:42:46.912Z,17.30
2023-02-16T13:45:17.928Z,18.30
2023-02-16T13:47:46.430Z,18.30
2023-02-16T13:50:33.836Z,18.10
2023-02-16T13:53:13.868Z,18.00
2023-02-16T13:55:43.804Z,17.50
2023-02-16T13:58:36.641Z,17.40
2023-02-16T14:01:38.728Z,17.50
2023-02-16T14:04:12.874Z,18.00
2023-02-16T14:06:42.777Z,18.10
2023-02-16T14:09:36.263Z,17.80
2023-02-16T14:12:21.178Z,17.60
2023-02-16T14:15:01.824Z,17.50
2023-02-16T14:17:32.979Z,17.70
2023-02-16T14:20:04.781Z,17.60
2023-02-16T14:22:48.912Z,17.80
2023-02-16T14:25:36.258Z,18.10
2023-02-16T14:28:07.527Z,17.60
2023-02-16T14:30:50.683Z,17.40
2023-02-16T14:33:23.525Z,17.40
2023-02-16T14:36:09.063Z,17.10
2023-02-16T14:38:39.312Z,17.10
2023-02-16T14:41:13.804Z,17.60
2023-02-16T14:43:44.988Z,17.70
2023-02-16T14:46:45.068Z,17.80
2023-02-16T14:49:51.381Z,17.80
2023-02-16T14:53:07.612Z,18.00
2023-02-16T14:56:08.560Z,17.80
2023-02-16T14:58:46.410Z,17.90
2023-02-16T15:01:17.355Z,18.20
2023-02-16T15:03:50.273Z,18.20
2023-02-16T15:06:26.455Z,18.80
2023-02-16T15:08:58.192Z,18.60
2023-02-16T15:11:31.805Z,18.80
2023-02-16T15:14:12.090Z,19.00
2023-02-16T15:16:42.198Z,18.80
2023-02-16T15:19:18.527Z,19.50
2023-02-16T15:21:46.779Z,19.30
2023-02-16T15:24:24.176Z,19.00
2023-02-16T15:27:01.466Z,19.00
2023-02-16T15:29:31.112Z,18.80
2023-02-16T15:32:02.002Z,18.50
2023-02-16T15:34:35.181Z,18.80
2023-02-16T15:37:20.251Z,18.20
2023-02-16T15:40:08.770Z,18.10
2023-02-16T15:42:43.324Z,18.60
2023-02-16T15:45:32.537Z,18.50
2023-02-16T15:48:32.144Z,18.50
2023-02-16T15:51:12.059Z,18.30
2023-02-16T15:53:48.141Z,18.30
2023-02-16T15:56:27.926Z,18.40
2023-02-16T15:58:57.495Z,18.20
2023-02-16T16:01:33.075Z,17.90
2023-02-16T16:04:09.169Z,17.80
2023-02-16T16:06:41.663Z,17.80
2023-02-16T16:09:21.397Z,17.50
2023-02-16T16:11:51.729Z,17.60
2023-02-16T16:14:20.456Z,18.10
2023-02-16T16:16:49.060Z,17.80
2023-02-16T16:19:19.197Z,17.80
2023-02-16T16:21:51.329Z,17.90
2023-02-16T16:24:33.565Z,18.00
2023-02-16T16:27:05.662Z,18.40
2023-02-16T16:29:39.184Z,18.20
2023-02-16T16:32:08.429Z,18.60
2023-02-16T16:34:38.802Z,18.70
2023-02-16T16:37:23.340Z,18.10
2023-02-16T16:40:05.845Z,17.50
2023-02-16T16:42:38.998Z,17.00
2023-02-16T16:45:28.322Z,16.60
2023-02-16T16:48:01.574Z,16.50
2023-02-16T16:50:37.734Z,17.00
2023-02-16T16:53:43.925Z,17.20
2023-02-16T16:56:14.286Z,16.60
2023-02-16T16:58:43.068Z,16.20
2023-02-16T17:01:13.748Z,16.00
2023-02-16T17:03:44.911Z,15.50
2023-02-16T17:06:14.061Z,15.20
2023-02-16T17:08:44.384Z,15.10
2023-02-16T17:11:16.988Z,15.00
2023-02-16T17:13:45.772Z,14.80
2023-02-16T17:16:18.283Z,14.60
2023-02-16T17:18:46.541Z,14.50
2023-02-16T17:21:15.788Z,14.50
2023-02-16T17:23:52.902Z,14.10
2023-02-16T17:26:22.253Z,14.20
2023-02-16T17:28:50.735Z,14.10
2023-02-16T17:31:19.962Z,14.00
2023-02-16T17:33:48.185Z,13.80
2023-02-16T17:36:17.645Z,13.50
2023-02-16T17:38:47.190Z,13.90
2023-02-16T17:41:21.669Z,13.90
2023-02-16T17:43:50.212Z,13.40
2023-02-16T17:46:19.036Z,12.70
2023-02-16T17:48:50.375Z,12.90
2023-02-16T17:51:20.941Z,12.80
2023-02-16T17:53:50.853Z,12.60
2023-02-16T17:56:22.139Z,12.50
2023-02-16T17:58:51.051Z,12.50
2023-02-16T18:01:21.265Z,12.50
2023-02-16T18:03:49.881Z,12.30
2023-02-16T18:06:20.178Z,12.40
2023-02-16T18:08:50.060Z,12.60
2023-02-16T18:11:18.344Z,12.70
2023-02-16T18:13:46.568Z,12.80
2023-02-16T18:16:18.655Z,12.60
2023-02-16T18:18:47.208Z,12.70
2023-02-16T18:21:15.508Z,12.30
2023-02-16T18:23:43.684Z,12.30
2023-02-16T18:26:15.907Z,12.40
2023-02-16T18:28:44.900Z,12.80
2023-02-16T18:31:14.585Z,13.30
2023-02-16T18:33:44.873Z,13.40
2023-02-16T18:36:13.119Z,13.60
2023-02-16T18:38:44.441Z,13.30
2023-02-16T18:41:14.548Z,13.50
2023-02-16T18:43:42.812Z,13.50
2023-02-16T18:46:11.926Z,13.70
2023-02-16T18:48:41.356Z,13.50
2023-02-16T18:51:10.751Z,13.90
2023-02-16T18:53:39.348Z,13.60
2023-02-16T18:56:08.704Z,13.50
2023-02-16T18:58:38.417Z,13.30
2023-02-16T19:01:14.194Z,13.10
2023-02-16T19:03:42.449Z,13.00
2023-02-16T19:06:10.694Z,12.60
2023-02-16T19:08:41.542Z,12.50
2023-02-16T19:11:12.562Z,12.70
2023-02-16T19:13:44.934Z,12.80
2023-02-16T19:16:13.431Z,13.10
2023-02-16T19:18:41.601Z,12.70
2023-02-16T19:21:11.256Z,13.10
2023-02-16T19:23:41.773Z,12.70
2023-02-16T19:26:12.037Z,12.70
2023-02-16T19:28:42.026Z,12.70
2023-02-16T19:31:18.583Z,12.80
2023-02-16T19:33:47.453Z,13.10
2023-02-16T19:36:19.152Z,13.30
2023-02-16T19:38:48.746Z,13.10
2023-02-16T19:41:23.083Z,12.90
2023-02-16T19:43:56.077Z,12.60
2023-02-16T19:46:26.115Z,12.70
2023-02-16T19:48:55.948Z,12.90
2023-02-16T19:51:24.361Z,13.10
2023-02-16T19:53:55.642Z,13.20
2023-02-16T19:56:26.076Z,13.50
2023-02-16T19:58:57.607Z,13.50
2023-02-16T20:01:28.095Z,13.60
2023-02-16T20:03:57.741Z,13.40
2023-02-16T20:06:30.788Z,13.20
2023-02-16T20:08:59.967Z,13.50
2023-02-16T20:11:31.949Z,13.20
2023-02-16T20:14:02.351Z,13.50
2023-02-16T20:16:30.851Z,13.50
2023-02-16T20:18:59.859Z,13.20
2023-02-16T20:21:30.038Z,12.70
2023-02-16T20:24:01.888Z,12.70
2023-02-16T20:26:34.138Z,12.80
2023-02-16T20:29:05.646Z,12.70
2023-02-16T20:31:36.684Z,13.10
2023-02-16T20:34:05.687Z,13.30
2023-02-16T20:36:34.763Z,12.90
2023-02-16T20:39:03.003Z,13.20
2023-02-16T20:41:31.248Z,13.30
2023-02-16T20:43:59.441Z,13.60
2023-02-16T20:46:29.011Z,13.60
2023-02-16T20:48:57.267Z,13.60
2023-02-16T20:51:25.678Z,13.90
2023-02-16T20:53:53.847Z,13.80
2023-02-16T20:56:23.756Z,13.40
2023-02-16T20:58:53.439Z,13.40
2023-02-16T21:01:23.797Z,13.50
2023-02-16T21:03:56.871Z,13.50
2023-02-16T21:06:25.604Z,13.10
2023-02-16T21:08:53.991Z,12.70
2023-02-16T21:11:23.725Z,13.00
2023-02-16T21:13:51.952Z,12.90
2023-02-16T21:16:23.340Z,12.80
2023-02-16T21:18:53.363Z,12.80
2023-02-16T21:21:25.975Z,12.80
2023-02-16T21:23:55.685Z,12.60
2023-02-16T21:26:26.183Z,12.50
2023-02-16T21:28:55.307Z,12.50
2023-02-16T21:31:25.807Z,12.70
2023-02-16T21:33:55.390Z,13.10
2023-02-16T21:36:26.199Z,13.50
2023-02-16T21:38:54.945Z,12.90
2023-02-16T21:41:26.462Z,12.80
2023-02-16T21:44:01.283Z,12.90
2023-02-16T21:46:31.367Z,12.80
2023-02-16T21:49:00.136Z,12.60
2023-02-16T21:51:30.668Z,12.70
2023-02-16T21:54:02.066Z,12.70
2023-02-16T21:56:35.744Z,12.90
2023-02-16T21:59:06.094Z,12.70
2023-02-16T22:01:35.787Z,12.70
2023-02-16T22:04:06.277Z,12.90
2023-02-16T22:06:37.015Z,13.10
2023-02-16T22:09:07.135Z,13.30
2023-02-16T22:11:35.309Z,14.00
2023-02-16T22:14:04.401Z,14.00
2023-02-16T22:16:37.054Z,13.80
2023-02-16T22:19:08.788Z,13.60
2023-02-16T22:21:38.525Z,13.60
2023-02-16T22:24:07.873Z,13.60
2023-02-16T22:26:37.196Z,13.40
2023-02-16T22:29:07.235Z,13.20
2023-02-16T22:31:36.268Z,13.20
2023-02-16T22:34:08.235Z,13.30
2023-02-16T22:36:40.207Z,13.10
2023-02-16T22:39:11.171Z,12.90
2023-02-16T22:41:39.866Z,12.70
2023-02-16T22:44:08.348Z,13.00
2023-02-16T22:46:36.600Z,13.40
2023-02-16T22:49:06.409Z,13.30
2023-02-16T22:51:34.631Z,12.90
2023-02-16T22:54:03.252Z,12.90
2023-02-16T22:56:32.204Z,12.50
2023-02-16T22:59:01.606Z,12.60
2023-02-16T23:01:31.312Z,12.40
2023-02-16T23:04:00.855Z,12.60
2023-02-16T23:06:32.587Z,12.30
2023-02-16T23:09:03.900Z,12.20
2023-02-16T23:11:32.635Z,12.10
2023-02-16T23:14:01.199Z,12.20
2023-02-16T23:16:29.755Z,12.40
2023-02-16T23:19:00.160Z,12.60
2023-02-16T23:21:31.970Z,12.90
2023-02-16T23:24:01.233Z,12.50
2023-02-16T23:26:31.945Z,12.60
2023-02-16T23:29:02.201Z,12.30
2023-02-16T23:31:33.516Z,12.20
2023-02-16T23:34:02.717Z,11.90
2023-02-16T23:36:38.259Z,12.00
2023-02-16T23:39:08.854Z,12.30
2023-02-16T23:41:37.448Z,12.20
2023-02-16T23:44:07.924Z,12.10
2023-02-16T23:46:40.820Z,12.10
2023-02-16T23:49:09.106Z,11.90
2023-02-16T23:51:38.888Z,12.00
2023-02-16T23:54:09.103Z,11.90
2023-02-16T23:56:37.250Z,12.10
2023-02-16T23:59:05.410Z,12.10
